Time;durP1;ratioP1;P1;durP2;ratioP2;P2;SDS_P1;SDS_P2;PMS_P1;PMS_P2;Temp;Humidity;BMP_temperature;BMP_pressure;BME280_temperature;BME280_humidity;BME280_pressure;Samples;Min_cycle;Max_cycle;Signal;HPM_P1;HPM_P2
2021/10/21 00:00:27;;;;;;;15.30;6.17;;;;;;;13.39;100.00;98755.38;2106544;28;20020;-61
2021/10/21 00:01:28;;;;;;;13.20;7.27;;;;;;;13.37;100.00;98731.94;2106619;28;20020;-61
2021/10/21 00:02:28;;;;;;;10.73;6.57;;;;;;;13.36;100.00;98725.03;2106583;28;20040;-60
2021/10/21 00:03:28;;;;;;;11.63;5.33;;;;;;;13.37;100.00;98731.94;2106519;28;20028;-62
2021/10/21 00:04:29;;;;;;;12.07;7.00;;;;;;;13.38;100.00;98703.94;2106571;28;20435;-64
2021/10/21 00:05:29;;;;;;;12.33;6.00;;;;;;;13.37;100.00;98679.53;2105903;28;20115;-61
2021/10/21 00:06:29;;;;;;;10.87;6.10;;;;;;;13.37;100.00;98671.69;2097509;28;20028;-61
2021/10/21 00:07:30;;;;;;;8.30;4.80;;;;;;;13.36;100.00;98662.16;2106120;28;20508;-61
2021/10/21 00:08:30;;;;;;;13.13;5.87;;;;;;;13.36;100.00;98667.41;2106488;28;20023;-61
2021/10/21 00:09:30;;;;;;;7.60;5.03;;;;;;;13.33;100.00;98667.69;2106567;28;20496;-60
2021/10/21 00:10:30;;;;;;;8.03;5.43;;;;;;;13.37;100.00;98670.84;2106466;28;20016;-60
2021/10/21 00:11:32;;;;;;;11.27;5.80;;;;;;;13.37;100.00;98669.06;2106476;28;20016;-60
2021/10/21 00:12:32;;;;;;;10.35;5.82;;;;;;;13.42;100.00;98676.53;2106378;28;20027;-62
2021/10/21 00:13:33;;;;;;;14.47;7.17;;;;;;;13.47;100.00;98694.44;2106621;28;20024;-62
2021/10/21 00:14:33;;;;;;;9.23;6.60;;;;;;;13.55;99.29;98672.81;2106650;28;20028;-60
2021/10/21 00:15:34;;;;;;;7.80;5.72;;;;;;;13.53;99.60;98678.19;2106452;28;20109;-62
2021/10/21 00:16:34;;;;;;;13.20;6.60;;;;;;;13.49;99.86;98661.09;2106496;28;20012;-65
2021/10/21 00:17:35;;;;;;;11.00;7.60;;;;;;;13.47;99.75;98697.03;2106527;28;20015;-63
2021/10/21 00:18:35;;;;;;;9.90;5.20;;;;;;;13.49;99.57;98655.84;2106423;28;20453;-65
2021/10/21 00:19:35;;;;;;;7.87;5.17;;;;;;;13.51;99.25;98641.66;2106554;28;20016;-65
2021/10/21 00:20:36;;;;;;;11.87;7.00;;;;;;;13.56;99.15;98667.44;2105795;28;20023;-63
2021/10/21 00:21:36;;;;;;;9.37;4.90;;;;;;;13.54;98.87;98679.84;2105970;28;20024;-63
2021/10/21 00:22:37;;;;;;;8.53;4.63;;;;;;;13.57;98.41;98650.75;2106377;28;20544;-64
2021/10/21 00:23:37;;;;;;;9.07;5.70;;;;;;;13.64;97.70;98657.09;2106501;28;20461;-62
2021/10/21 00:24:38;;;;;;;8.38;6.03;;;;;;;13.69;97.17;98663.72;2106530;28;20065;-63
2021/10/21 00:25:38;;;;;;;8.37;6.07;;;;;;;13.73;96.13;98641.50;2105713;28;20016;-63
2021/10/21 00:26:38;;;;;;;7.27;4.37;;;;;;;13.78;95.35;98644.53;2105980;28;20065;-63
2021/10/21 00:27:39;;;;;;;6.93;5.13;;;;;;;13.76;95.71;98656.97;2105606;28;20115;-63
2021/10/21 00:28:39;;;;;;;8.90;5.73;;;;;;;13.75;95.14;98644.78;2105696;28;20047;-65
2021/10/21 00:29:39;;;;;;;8.50;5.63;;;;;;;13.73;95.39;98658.06;2105811;28;20028;-63
2021/10/21 00:30:40;;;;;;;12.00;5.87;;;;;;;13.69;95.12;98634.88;2106535;28;20020;-66
2021/10/21 00:31:41;;;;;;;11.80;4.45;;;;;;;13.72;93.61;98629.38;2106386;28;20012;-64
2021/10/21 00:32:42;;;;;;;8.63;5.00;;;;;;;13.82;91.49;98651.13;2106332;28;20019;-62
2021/10/21 00:33:42;;;;;;;11.57;5.13;;;;;;;13.88;92.17;98620.91;2106425;28;20058;-64
2021/10/21 00:34:42;;;;;;;7.53;5.40;;;;;;;13.85;93.15;98635.13;2106551;28;20724;-62
2021/10/21 00:35:42;;;;;;;6.03;5.43;;;;;;;13.76;93.97;98630.75;2106640;28;20040;-65
2021/10/21 00:36:44;;;;;;;6.27;4.80;;;;;;;13.67;94.54;98632.41;2108108;28;20031;-65
2021/10/21 00:37:45;;;;;;;11.63;6.75;;;;;;;13.61;94.07;98625.09;2108231;28;20157;-64
2021/10/21 00:38:45;;;;;;;12.70;5.73;;;;;;;13.59;94.41;98640.94;2108215;28;20553;-63
2021/10/21 00:39:45;;;;;;;7.30;5.33;;;;;;;13.57;92.99;98642.06;2108123;28;20020;-63
2021/10/21 00:40:45;;;;;;;6.13;4.53;;;;;;;13.69;89.73;98640.13;2108193;28;20016;-63
2021/10/21 00:41:46;;;;;;;7.57;3.67;;;;;;;13.76;89.18;98633.38;2108042;28;20357;-63
2021/10/21 00:42:46;;;;;;;4.68;2.95;;;;;;;13.74;90.04;98640.53;2108173;28;20099;-62
2021/10/21 00:43:46;;;;;;;6.70;3.60;;;;;;;13.68;90.09;98656.81;2108084;28;20106;-64
2021/10/21 00:44:47;;;;;;;10.25;4.20;;;;;;;13.64;89.30;98657.09;2108035;28;20027;-66
2021/10/21 00:45:47;;;;;;;6.70;3.90;;;;;;;13.61;90.23;98675.72;2108029;28;20526;-63
2021/10/21 00:46:47;;;;;;;6.20;3.53;;;;;;;13.58;89.33;98660.25;2107940;28;20282;-63
2021/10/21 00:47:48;;;;;;;4.47;2.70;;;;;;;13.53;90.15;98654.63;2107372;28;20463;-63
2021/10/21 00:48:48;;;;;;;5.23;2.77;;;;;;;13.45;89.06;98654.44;2107419;28;20047;-64
2021/10/21 00:49:48;;;;;;;4.80;3.40;;;;;;;13.42;88.17;98639.00;2107912;28;20073;-62
2021/10/21 00:50:49;;;;;;;6.87;2.20;;;;;;;13.36;87.56;98666.56;2108111;28;20024;-62
2021/10/21 00:51:49;;;;;;;5.47;2.60;;;;;;;13.42;84.86;98644.25;2107090;28;20032;-68
2021/10/21 00:52:50;;;;;;;6.18;3.88;;;;;;;13.46;86.50;98662.19;2098941;28;20028;-62
2021/10/21 00:53:50;;;;;;;7.05;3.75;;;;;;;13.38;86.29;98654.97;2107619;28;20047;-64
2021/10/21 00:54:52;;;;;;;4.23;2.83;;;;;;;13.36;84.78;98646.44;2107300;28;20074;-64
2021/10/21 00:55:52;;;;;;;2.92;1.83;;;;;;;13.38;84.58;98654.97;2107334;28;20032;-62
2021/10/21 00:56:55;;;;;;;10.07;2.70;;;;;;;13.34;85.22;98664.09;2107223;28;20054;-64
2021/10/21 00:57:55;;;;;;;7.35;3.05;;;;;;;13.35;84.41;98654.44;2107220;28;20028;-64
2021/10/21 00:58:55;;;;;;;4.03;2.63;;;;;;;13.33;83.95;98636.25;2107844;28;20024;-63
2021/10/21 00:59:56;;;;;;;4.77;3.20;;;;;;;13.30;84.16;98651.38;2107930;28;20030;-66
2021/10/21 01:00:57;;;;;;;7.05;3.53;;;;;;;13.26;83.74;98672.63;2107355;28;20034;-62
2021/10/21 01:01:57;;;;;;;5.23;3.87;;;;;;;13.23;83.85;98669.44;2107414;28;20051;-65
2021/10/21 01:02:58;;;;;;;4.50;3.60;;;;;;;13.22;83.77;98699.22;2107937;28;20500;-63
2021/10/21 01:03:58;;;;;;;4.67;3.67;;;;;;;13.16;83.06;98670.94;2107160;28;20020;-63
2021/10/21 01:04:59;;;;;;;2.47;1.87;;;;;;;13.01;83.48;98676.59;2107221;28;20035;-63
2021/10/21 01:05:59;;;;;;;7.10;2.83;;;;;;;12.90;85.27;98676.69;2107723;28;20767;-63
2021/10/21 01:07:01;;;;;;;4.85;3.53;;;;;;;12.74;85.70;98685.88;2107909;28;20063;-63
2021/10/21 01:08:01;;;;;;;;;;;;;;;12.66;86.00;98670.81;2108518;28;20055;-64
2021/10/21 01:09:02;;;;;;;5.20;3.15;;;;;;;12.58;86.25;98679.34;2107867;28;19922;-62
2021/10/21 01:10:06;;;;;;;;;;;;;;;12.54;84.61;98664.88;2107946;28;20020;-62
2021/10/21 01:11:06;;;;;;;4.05;3.75;;;;;;;12.58;84.92;98668.88;2107283;28;19958;-63
2021/10/21 01:12:07;;;;;;;4.50;1.90;;;;;;;12.60;83.98;98640.78;2107693;28;20028;-64
2021/10/21 01:13:07;;;;;;;4.50;3.57;;;;;;;12.59;84.15;98670.53;2107829;28;20050;-62
2021/10/21 01:14:08;;;;;;;6.77;2.80;;;;;;;12.51;84.66;98672.97;2107869;28;20125;-63
2021/10/21 01:15:27;;;;;;;7.80;2.75;;;;;;;12.46;84.61;98667.31;2107049;28;20066;-62
2021/10/21 01:16:27;;;;;;;6.15;2.70;;;;;;;12.44;84.39;98661.38;2106897;28;20118;-63
2021/10/21 01:17:27;;;;;;;4.88;1.80;;;;;;;12.40;84.72;98660.81;2107123;28;20377;-62
2021/10/21 01:18:28;;;;;;;7.07;2.50;;;;;;;12.40;84.90;98667.81;2107606;28;20016;-64
2021/10/21 01:19:28;;;;;;;6.73;2.67;;;;;;;12.35;84.38;98687.34;2107681;28;20024;-63
2021/10/21 01:20:29;;;;;;;6.10;2.43;;;;;;;12.44;82.46;98693.59;2107625;28;20031;-63
2021/10/21 01:21:29;;;;;;;3.08;2.45;;;;;;;12.58;80.97;98675.88;2107662;28;20031;-64
2021/10/21 01:22:30;;;;;;;3.83;3.03;;;;;;;12.61;80.95;98689.53;2107189;28;20028;-62
2021/10/21 01:23:31;;;;;;;5.60;3.30;;;;;;;12.56;80.96;98668.16;2107146;28;20436;-63
2021/10/21 01:24:31;;;;;;;2.95;2.70;;;;;;;12.50;78.96;98687.00;2107357;28;20067;-62
2021/10/21 01:25:31;;;;;;;6.27;3.07;;;;;;;12.52;77.94;98674.63;2107910;28;20095;-60
2021/10/21 01:26:32;;;;;;;7.00;3.87;;;;;;;12.55;77.98;98679.59;2107964;28;20027;-62
2021/10/21 01:27:32;;;;;;;7.63;2.80;;;;;;;12.53;77.44;98667.59;2107744;28;20016;-61
2021/10/21 01:28:32;;;;;;;6.63;3.33;;;;;;;12.49;78.83;98656.59;2107767;28;20016;-62
2021/10/21 01:29:33;;;;;;;4.87;2.63;;;;;;;12.42;78.03;98660.69;2107635;28;20031;-62
2021/10/21 01:30:33;;;;;;;3.10;2.90;;;;;;;12.38;77.42;98656.69;2107797;28;20391;-62
2021/10/21 01:31:33;;;;;;;6.60;1.13;;;;;;;12.38;76.70;98654.06;2107080;28;20054;-64
2021/10/21 01:32:36;;;;;;;5.23;2.30;;;;;;;12.45;75.75;98657.78;2106862;28;20485;-61
2021/10/21 01:33:37;;;;;;;5.18;2.40;;;;;;;12.41;75.79;98661.63;2107629;28;20397;-63
2021/10/21 01:34:37;;;;;;;4.18;2.58;;;;;;;12.35;76.02;98649.91;2107762;28;20028;-63
2021/10/21 01:35:38;;;;;;;6.60;3.33;;;;;;;12.34;76.55;98667.38;2107656;28;20454;-62
2021/10/21 01:36:40;;;;;;;4.10;1.83;;;;;;;12.28;77.05;98662.66;2107514;28;20051;-62
2021/10/21 01:37:41;;;;;;;4.00;2.07;;;;;;;12.21;77.01;98651.06;2107382;28;20369;-63
2021/10/21 01:38:41;;;;;;;4.70;3.65;;;;;;;12.16;77.23;98642.78;2107534;28;20232;-62
2021/10/21 01:39:42;;;;;;;3.33;2.05;;;;;;;12.12;78.15;98644.84;2107462;28;20085;-62
2021/10/21 01:40:42;;;;;;;5.85;3.70;;;;;;;12.05;78.16;98673.25;2107443;28;20366;-62
2021/10/21 01:41:43;;;;;;;5.43;0.97;;;;;;;12.10;76.94;98644.97;2107587;28;20034;-61
2021/10/21 01:42:44;;;;;;;4.30;2.23;;;;;;;12.13;77.44;98637.81;2107522;28;20370;-62
2021/10/21 01:43:46;;;;;;;3.05;2.70;;;;;;;12.12;76.79;98637.00;2107433;28;20104;-62
2021/10/21 01:44:46;;;;;;;4.55;1.90;;;;;;;12.12;77.78;98628.31;2106626;28;20519;-63
2021/10/21 01:45:47;;;;;;;4.27;1.50;;;;;;;12.13;77.56;98632.59;2106831;28;20024;-63
2021/10/21 01:46:47;;;;;;;5.70;1.92;;;;;;;12.19;77.61;98643.38;2107135;28;20435;-62
2021/10/21 01:47:48;;;;;;;7.03;2.10;;;;;;;12.13;77.69;98643.88;2106575;28;20012;-65
2021/10/21 01:48:48;;;;;;;5.22;2.95;;;;;;;12.10;78.19;98639.75;2106882;28;20023;-63
2021/10/21 01:49:49;;;;;;;4.57;1.97;;;;;;;12.08;77.68;98628.56;2107338;28;20054;-66
2021/10/21 01:50:50;;;;;;;2.53;1.07;;;;;;;12.14;77.60;98639.50;2107350;28;20084;-64
2021/10/21 01:51:51;;;;;;;8.90;2.10;;;;;;;12.20;76.02;98631.13;2107294;28;20434;-62
2021/10/21 01:52:51;;;;;;;3.05;1.67;;;;;;;12.26;75.40;98646.28;2107362;28;20020;-63
2021/10/21 01:53:52;;;;;;;3.35;1.52;;;;;;;12.27;75.13;98627.03;2107586;28;20036;-64
2021/10/21 01:54:52;;;;;;;1.60;1.00;;;;;;;12.23;76.10;98633.47;2106851;28;20033;-62
2021/10/21 01:55:52;;;;;;;6.83;2.87;;;;;;;12.20;77.65;98623.28;2106896;28;20488;-62
2021/10/21 01:56:53;;;;;;;5.33;2.50;;;;;;;12.17;76.97;98632.22;2107558;28;20027;-62
2021/10/21 01:57:53;;;;;;;3.55;1.92;;;;;;;12.14;76.84;98621.19;2107317;28;20492;-63
2021/10/21 01:58:54;;;;;;;2.75;1.58;;;;;;;12.09;77.28;98627.63;2107263;28;20059;-63
2021/10/21 01:59:54;;;;;;;3.37;1.77;;;;;;;12.04;77.47;98634.19;2107378;28;20105;-65
2021/10/21 02:00:54;;;;;;;3.43;1.90;;;;;;;12.01;77.49;98630.00;2107292;28;20388;-66
2021/10/21 02:01:55;;;;;;;4.40;2.63;;;;;;;12.01;77.90;98619.56;2107362;28;20028;-65
2021/10/21 02:02:55;;;;;;;3.50;1.63;;;;;;;12.04;77.04;98621.09;2106641;28;20023;-65
2021/10/21 02:03:55;;;;;;;3.63;1.80;;;;;;;12.02;77.27;98620.41;2106715;28;20052;-63
2021/10/21 02:04:55;;;;;;;2.60;1.60;;;;;;;11.97;77.79;98618.16;2106667;28;20614;-64
2021/10/21 02:05:56;;;;;;;5.90;2.50;;;;;;;11.94;77.75;98618.44;2107281;28;20070;-62
2021/10/21 02:06:56;;;;;;;5.38;2.70;;;;;;;11.90;78.50;98617.03;2107441;28;20369;-64
2021/10/21 02:07:57;;;;;;;3.93;2.53;;;;;;;11.88;79.21;98618.94;2107433;28;20485;-62
2021/10/21 02:08:57;;;;;;;10.87;3.57;;;;;;;11.83;78.08;98612.31;2107509;28;20169;-62
2021/10/21 02:09:57;;;;;;;4.23;2.30;;;;;;;11.80;79.48;98617.78;2107248;28;20058;-61
2021/10/21 02:10:57;;;;;;;2.40;2.20;;;;;;;11.79;79.10;98621.38;2107174;28;20034;-62
2021/10/21 02:11:58;;;;;;;3.20;1.20;;;;;;;11.77;79.24;98612.81;2107269;28;20047;-61
2021/10/21 02:12:58;;;;;;;3.80;2.10;;;;;;;11.75;79.16;98612.13;2107220;28;20024;-62
2021/10/21 02:13:58;;;;;;;4.03;2.70;;;;;;;11.75;79.02;98609.50;2107427;28;20016;-63
2021/10/21 02:14:58;;;;;;;5.87;3.00;;;;;;;11.77;78.60;98607.59;2107420;28;20020;-63
2021/10/21 02:15:59;;;;;;;4.27;3.03;;;;;;;11.76;78.89;98615.56;2107518;28;20036;-63
2021/10/21 02:17:00;;;;;;;6.43;3.13;;;;;;;11.71;79.98;98602.91;2107315;28;20052;-63
2021/10/21 02:18:00;;;;;;;4.10;3.00;;;;;;;11.64;79.58;98605.19;2107292;28;20020;-63
2021/10/21 02:19:01;;;;;;;5.43;2.17;;;;;;;11.62;80.53;98616.69;2107209;28;20016;-63
2021/10/21 02:20:02;;;;;;;5.90;2.97;;;;;;;11.63;80.41;98602.69;2107251;28;20473;-63
2021/10/21 02:21:02;;;;;;;4.35;2.70;;;;;;;11.65;80.52;98613.84;2107217;28;20150;-63
2021/10/21 02:22:04;;;;;;;4.13;2.70;;;;;;;11.66;81.09;98613.72;2107195;28;20055;-63
2021/10/21 02:23:04;;;;;;;6.43;2.05;;;;;;;11.56;82.89;98611.03;2107085;28;20055;-63
2021/10/21 02:24:05;;;;;;;3.07;1.93;;;;;;;11.43;84.49;98592.13;2107137;28;20028;-63
2021/10/21 02:25:07;;;;;;;4.80;2.60;;;;;;;11.29;85.08;98599.28;2107263;28;20047;-63
2021/10/21 02:26:07;;;;;;;5.90;1.13;;;;;;;11.18;85.94;98597.53;2107133;28;20031;-63
2021/10/21 02:27:08;;;;;;;2.93;2.13;;;;;;;11.14;85.88;98592.69;2107055;28;20453;-61
2021/10/21 02:28:08;;;;;;;4.90;3.57;;;;;;;11.13;85.97;98602.31;2107246;28;20104;-65
2021/10/21 02:29:08;;;;;;;3.93;2.63;;;;;;;11.12;85.53;98597.22;2107197;28;20389;-63
2021/10/21 02:30:11;;;;;;;5.67;3.00;;;;;;;11.15;86.65;98602.19;2107182;28;20016;-63
2021/10/21 02:31:11;;;;;;;3.42;1.08;;;;;;;11.13;86.49;98593.66;2107204;28;20051;-62
2021/10/21 02:32:12;;;;;;;5.07;1.63;;;;;;;11.08;86.55;98589.63;2107117;28;20016;-62
2021/10/21 02:33:13;;;;;;;7.80;2.10;;;;;;;11.06;86.36;98591.53;2107057;28;20026;-62
2021/10/21 02:34:13;;;;;;;2.50;1.75;;;;;;;11.07;86.68;98595.81;2106991;28;20019;-62
2021/10/21 02:35:14;;;;;;;3.37;1.30;;;;;;;11.13;85.45;98585.81;2106347;28;20063;-62
2021/10/21 02:36:14;;;;;;;8.67;2.83;;;;;;;11.14;86.00;98584.84;2097874;28;20453;-61
2021/10/21 02:37:14;;;;;;;5.93;1.40;;;;;;;11.15;85.79;98576.09;2106449;28;20100;-64
2021/10/21 02:38:15;;;;;;;5.23;1.90;;;;;;;11.17;85.21;98574.19;2106959;28;20027;-63
2021/10/21 02:39:15;;;;;;;8.80;3.37;;;;;;;11.19;85.28;98578.31;2106936;28;20023;-63
2021/10/21 02:40:15;;;;;;;5.93;2.60;;;;;;;11.24;85.14;98580.56;2106986;28;20055;-62
2021/10/21 02:41:16;;;;;;;4.90;2.63;;;;;;;11.27;84.88;98567.25;2106924;28;20024;-62
2021/10/21 02:42:16;;;;;;;4.10;2.73;;;;;;;11.30;84.35;98569.59;2106981;28;20448;-62
2021/10/21 02:43:16;;;;;;;3.03;2.47;;;;;;;11.33;85.12;98564.13;2107048;28;20465;-63
2021/10/21 02:44:17;;;;;;;6.20;2.67;;;;;;;11.33;84.78;98566.75;2107144;28;20068;-63
2021/10/21 02:45:18;;;;;;;3.80;2.80;;;;;;;11.35;84.00;98573.63;2106461;28;20016;-63
2021/10/21 02:46:18;;;;;;;7.87;2.63;;;;;;;11.35;84.50;98577.06;2106340;28;20147;-63
2021/10/21 02:47:19;;;;;;;12.48;4.35;;;;;;;11.30;85.71;98564.38;2107073;28;20019;-63
2021/10/21 02:48:19;;;;;;;6.53;3.37;;;;;;;11.24;85.94;98570.13;2106340;28;20158;-63
2021/10/21 02:49:19;;;;;;;6.37;2.53;;;;;;;11.18;86.41;98576.66;2106463;28;20385;-63
2021/10/21 02:50:20;;;;;;;6.43;2.70;;;;;;;11.11;86.60;98566.84;2107017;28;20028;-62
2021/10/21 02:51:20;;;;;;;7.32;3.55;;;;;;;11.04;88.90;98580.41;2107099;28;20027;-62
2021/10/21 02:52:20;;;;;;;6.63;2.93;;;;;;;10.96;88.62;98572.34;2107060;28;20024;-66
2021/10/21 02:53:21;;;;;;;4.40;2.83;;;;;;;10.89;89.22;98563.34;2106878;28;20318;-65
2021/10/21 02:54:21;;;;;;;5.77;1.97;;;;;;;10.85;89.48;98561.94;2106896;28;20024;-63
2021/10/21 02:55:22;;;;;;;4.83;2.20;;;;;;;10.80;89.81;98572.75;2106757;28;20074;-63
2021/10/21 02:56:22;;;;;;;6.18;1.38;;;;;;;10.76;90.24;98569.56;2107174;28;20047;-64
2021/10/21 02:57:22;;;;;;;3.77;0.70;;;;;;;10.69;91.09;98561.41;2107048;28;20095;-64
2021/10/21 02:58:23;;;;;;;5.43;1.80;;;;;;;10.66;91.88;98571.25;2106327;28;20020;-63
2021/10/21 02:59:23;;;;;;;3.60;1.30;;;;;;;10.63;91.60;98561.03;2105950;28;20106;-63
2021/10/21 03:00:23;;;;;;;4.00;1.30;;;;;;;10.61;91.88;98562.97;2106171;28;20477;-64
2021/10/21 03:01:23;;;;;;;1.87;0.60;;;;;;;10.60;92.29;98551.69;2106542;28;20102;-63
2021/10/21 03:02:24;;;;;;;2.80;0.60;;;;;;;10.59;92.17;98560.47;2106413;28;20061;-63
2021/10/21 03:03:24;;;;;;;8.40;1.40;;;;;;;10.59;92.18;98554.41;2107183;28;20047;-61
2021/10/21 03:04:25;;;;;;;6.88;1.10;;;;;;;10.56;92.51;98571.97;2106984;28;20453;-62
2021/10/21 03:05:25;;;;;;;4.17;1.00;;;;;;;10.53;92.72;98559.16;2106919;28;20115;-61
2021/10/21 03:06:25;;;;;;;3.10;0.70;;;;;;;10.50;93.42;98551.59;2106870;28;20107;-61
2021/10/21 03:07:26;;;;;;;5.03;0.80;;;;;;;10.42;94.55;98553.94;2107233;28;20024;-62
2021/10/21 03:08:26;;;;;;;6.93;1.00;;;;;;;10.35;94.50;98557.97;2106836;28;20032;-60
2021/10/21 03:09:26;;;;;;;6.07;0.80;;;;;;;10.28;94.60;98555.84;2107097;28;20048;-62
2021/10/21 03:10:26;;;;;;;5.40;0.80;;;;;;;10.25;95.65;98557.84;2106901;28;20031;-62
2021/10/21 03:11:27;;;;;;;7.20;0.70;;;;;;;10.21;96.49;98561.66;2107073;28;20039;-64
2021/10/21 03:12:27;;;;;;;11.93;1.47;;;;;;;10.16;96.50;98552.41;2106805;28;20020;-63
2021/10/21 03:13:27;;;;;;;3.07;1.10;;;;;;;10.14;97.01;98554.31;2106155;28;20047;-63
2021/10/21 03:14:28;;;;;;;1.23;0.70;;;;;;;10.12;97.24;98560.59;2106329;28;20386;-62
2021/10/21 03:15:28;;;;;;;6.60;1.67;;;;;;;10.10;97.69;98565.09;2106685;28;20028;-62
2021/10/21 03:16:34;;;;;;;4.17;1.10;;;;;;;10.09;97.90;98553.03;2106518;28;20070;-62
2021/10/21 03:17:35;;;;;;;5.75;1.58;;;;;;;10.06;97.58;98546.25;2105809;28;20370;-61
2021/10/21 03:18:35;;;;;;;4.57;0.83;;;;;;;10.05;98.07;98552.41;2106653;28;20058;-62
2021/10/21 03:19:36;;;;;;;6.70;0.90;;;;;;;10.05;97.79;98545.44;2106967;28;20366;-62
2021/10/21 03:20:36;;;;;;;9.57;1.40;;;;;;;10.05;98.13;98545.44;2106757;28;20066;-63
2021/10/21 03:21:37;;;;;;;3.43;1.70;;;;;;;10.04;98.54;98538.56;2105986;28;20036;-63
2021/10/21 03:22:39;;;;;;;12.48;1.00;;;;;;;10.02;98.48;98553.47;2106475;28;20113;-62
2021/10/21 03:23:40;;;;;;;5.40;1.15;;;;;;;10.00;98.58;98531.94;2106874;28;20016;-62
2021/10/21 03:24:40;;;;;;;4.53;0.53;;;;;;;9.99;98.90;98535.47;2106966;28;20491;-62
2021/10/21 03:25:40;;;;;;;5.67;1.23;;;;;;;9.99;99.34;98539.88;2107079;28;20028;-62
2021/10/21 03:26:40;;;;;;;8.03;1.43;;;;;;;9.98;99.15;98539.03;2106501;28;20024;-62
2021/10/21 03:27:41;;;;;;;4.83;2.50;;;;;;;9.97;99.29;98540.00;2106394;28;20485;-61
2021/10/21 03:28:41;;;;;;;5.33;2.00;;;;;;;9.98;98.95;98540.78;2106349;28;20091;-61
2021/10/21 03:29:41;;;;;;;5.43;2.80;;;;;;;9.99;99.24;98535.47;2106409;28;20047;-61
2021/10/21 03:30:42;;;;;;;8.13;2.70;;;;;;;10.00;99.24;98531.94;2106517;28;20516;-61
2021/10/21 03:31:42;;;;;;;5.37;1.13;;;;;;;9.98;99.05;98531.22;2105971;28;20471;-61
2021/10/21 03:32:43;;;;;;;3.80;1.13;;;;;;;9.99;99.15;98542.47;2106054;28;20016;-61
2021/10/21 03:33:44;;;;;;;9.82;1.13;;;;;;;9.99;99.06;98538.06;2106671;28;20104;-61
2021/10/21 03:34:45;;;;;;;4.43;1.63;;;;;;;10.01;98.73;98540.56;2106483;28;20031;-61
2021/10/21 03:35:45;;;;;;;7.37;3.33;;;;;;;10.01;98.36;98527.53;2106205;28;20048;-62
2021/10/21 03:36:46;;;;;;;6.10;2.90;;;;;;;10.03;98.36;98529.06;2105707;28;20023;-60
2021/10/21 03:37:46;;;;;;;3.78;0.93;;;;;;;10.04;98.41;98529.91;2106233;28;20023;-62
2021/10/21 03:38:46;;;;;;;9.27;2.63;;;;;;;10.07;97.77;98531.44;2106408;28;20020;-62
2021/10/21 03:39:49;;;;;;;4.20;1.60;;;;;;;10.07;97.91;98518.41;2106415;28;20047;-62
2021/10/21 03:40:50;;;;;;;6.13;1.45;;;;;;;10.05;98.34;98519.38;2105747;28;20103;-62
2021/10/21 03:41:50;;;;;;;6.27;3.13;;;;;;;10.05;97.46;98511.56;2105646;28;20133;-61
2021/10/21 03:42:50;;;;;;;8.03;1.73;;;;;;;10.07;97.59;98508.00;2106419;28;20085;-61
2021/10/21 03:43:50;;;;;;;4.17;3.77;;;;;;;10.06;97.80;98504.56;2106467;28;20493;-61
2021/10/21 03:44:54;;;;;;;7.70;3.10;;;;;;;10.06;98.57;98507.16;2106641;28;20099;-61
2021/10/21 03:45:54;;;;;;;13.60;3.65;;;;;;;10.05;98.30;98489.88;2106458;28;20020;-61
2021/10/21 03:46:54;;;;;;;5.17;2.40;;;;;;;10.08;97.40;98500.06;2106293;28;20076;-62
2021/10/21 03:47:55;;;;;;;4.90;2.67;;;;;;;10.11;97.58;98509.41;2106467;28;20027;-61
2021/10/21 03:48:55;;;;;;;6.90;3.83;;;;;;;10.13;97.00;98491.91;2105802;28;20546;-63
2021/10/21 03:49:55;;;;;;;6.83;2.60;;;;;;;10.12;97.48;98493.66;2105816;28;20054;-61
2021/10/21 03:50:55;;;;;;;6.63;2.77;;;;;;;10.12;97.58;98495.44;2105734;28;20028;-61
2021/10/21 03:51:56;;;;;;;7.20;3.10;;;;;;;10.12;97.66;98479.78;2097539;28;20069;-62
2021/10/21 03:52:56;;;;;;;9.23;1.88;;;;;;;10.11;97.81;98488.56;2105770;28;20020;-63
2021/10/21 03:53:57;;;;;;;8.67;2.83;;;;;;;10.13;97.67;98486.69;2106300;28;20027;-62
2021/10/21 03:54:57;;;;;;;6.47;3.30;;;;;;;10.18;96.89;98494.97;2106450;28;20067;-62
2021/10/21 03:55:57;;;;;;;7.80;2.33;;;;;;;10.17;96.79;98499.34;2106267;28;20036;-62
2021/10/21 03:56:58;;;;;;;8.17;3.33;;;;;;;10.18;97.23;98481.94;2106371;28;20044;-61
2021/10/21 03:57:58;;;;;;;6.60;1.70;;;;;;;10.15;96.62;98484.75;2106399;28;20078;-61
2021/10/21 03:58:59;;;;;;;8.13;1.97;;;;;;;10.17;97.24;98495.91;2106273;28;20027;-61
2021/10/21 04:00:00;;;;;;;4.28;1.70;;;;;;;10.18;97.00;98484.53;2106091;28;20077;-61
2021/10/21 04:01:00;;;;;;;7.53;1.73;;;;;;;10.21;96.20;98502.53;2106093;28;20431;-62
2021/10/21 04:02:00;;;;;;;5.83;2.40;;;;;;;10.24;95.83;98497.09;2106333;28;20477;-62
2021/10/21 04:03:01;;;;;;;5.37;1.57;;;;;;;10.25;95.64;98490.94;2106208;28;20042;-62
2021/10/21 04:04:02;;;;;;;7.43;2.47;;;;;;;10.33;95.03;98492.91;2106244;28;20385;-61
2021/10/21 04:05:03;;;;;;;3.30;1.27;;;;;;;10.30;95.58;98462.72;2106266;28;20047;-65
2021/10/21 04:06:03;;;;;;;6.18;2.67;;;;;;;10.31;95.69;98498.25;2106062;28;20544;-61
2021/10/21 04:07:04;;;;;;;4.00;3.00;;;;;;;10.32;94.55;98475.63;2106295;28;20028;-63
2021/10/21 04:08:05;;;;;;;5.90;1.47;;;;;;;10.34;95.40;98475.50;2106184;28;20383;-62
2021/10/21 04:09:05;;;;;;;4.47;1.35;;;;;;;10.30;94.82;98483.56;2106271;28;20028;-62
2021/10/21 04:10:06;;;;;;;3.80;1.50;;;;;;;10.34;95.18;98483.31;2106768;28;20026;-62
2021/10/21 04:11:06;;;;;;;7.18;2.10;;;;;;;10.30;95.50;98483.56;2106144;28;20027;-62
2021/10/21 04:12:07;;;;;;;1.87;0.57;;;;;;;10.25;95.47;98480.50;2106158;28;20032;-64
2021/10/21 04:13:07;;;;;;;5.77;0.87;;;;;;;10.22;96.47;98467.69;2105980;28;20110;-63
2021/10/21 04:14:07;;;;;;;3.47;1.23;;;;;;;10.21;96.36;98479.09;2105947;28;20399;-62
2021/10/21 04:15:08;;;;;;;7.80;0.67;;;;;;;10.17;96.21;98482.88;2106752;28;20028;-62
2021/10/21 04:16:08;;;;;;;7.60;2.88;;;;;;;10.15;96.45;98474.34;2106450;28;20036;-63
2021/10/21 04:17:08;;;;;;;6.90;2.10;;;;;;;10.12;97.21;98472.81;2106149;28;20020;-65
2021/10/21 04:18:09;;;;;;;2.93;0.63;;;;;;;10.14;96.85;98463.09;2106523;28;20407;-62
2021/10/21 04:19:09;;;;;;;4.97;1.07;;;;;;;10.12;96.42;98465.00;2106623;28;20024;-62
2021/10/21 04:20:10;;;;;;;1.60;0.57;;;;;;;10.14;96.68;98478.75;2106063;28;20028;-62
2021/10/21 04:21:12;;;;;;;5.85;1.08;;;;;;;10.11;96.43;98458.13;2106207;28;20043;-63
2021/10/21 04:22:12;;;;;;;;;;;;;;;10.12;96.34;98462.38;2107163;28;20031;-62
2021/10/21 04:23:12;;;;;;;4.72;0.95;;;;;;;10.13;96.58;98461.44;2106640;28;19916;-62
2021/10/21 04:24:13;;;;;;;3.92;0.85;;;;;;;10.18;96.34;98445.44;2106182;28;20488;-65
2021/10/21 04:25:14;;;;;;;3.73;0.97;;;;;;;10.17;96.17;98435.97;2106214;28;20085;-62
2021/10/21 04:26:15;;;;;;;5.70;1.45;;;;;;;10.18;95.83;98422.81;2106636;28;20032;-62
2021/10/21 04:27:16;;;;;;;2.60;0.50;;;;;;;10.21;95.69;98428.72;2106577;28;20031;-63
2021/10/21 04:28:17;;;;;;;7.20;1.20;;;;;;;10.22;95.75;98418.19;2106247;28;20020;-62
2021/10/21 04:29:17;;;;;;;2.50;0.90;;;;;;;10.23;95.53;98430.25;2106080;28;20487;-62
2021/10/21 04:30:18;;;;;;;4.73;0.97;;;;;;;10.20;95.75;98435.72;2106289;28;20055;-63
2021/10/21 04:31:18;;;;;;;5.40;0.67;;;;;;;10.22;95.50;98443.41;2106627;28;20424;-63
2021/10/21 04:32:18;;;;;;;1.40;0.50;;;;;;;10.25;94.84;98428.38;2105762;28;20020;-62
2021/10/21 04:33:19;;;;;;;3.33;0.87;;;;;;;10.26;95.37;98440.44;2106124;28;20027;-63
2021/10/21 04:34:19;;;;;;;2.30;0.80;;;;;;;10.25;95.22;98438.78;2106120;28;20074;-64
2021/10/21 04:35:19;;;;;;;1.80;0.30;;;;;;;10.25;96.05;98427.53;2106493;28;20031;-63
2021/10/21 04:36:19;;;;;;;1.37;0.57;;;;;;;10.26;95.54;98440.44;2105896;28;20043;-61
2021/10/21 04:37:20;;;;;;;2.47;0.70;;;;;;;10.29;94.89;98442.81;2106092;28;20024;-62
2021/10/21 04:38:20;;;;;;;3.90;0.70;;;;;;;10.34;94.75;98431.19;2106343;28;20046;-62
2021/10/21 04:39:20;;;;;;;1.93;0.50;;;;;;;10.37;94.21;98446.59;2106471;28;20408;-61
2021/10/21 04:40:21;;;;;;;0.60;0.55;;;;;;;10.41;94.05;98448.00;2105508;28;20024;-63
2021/10/21 04:41:21;;;;;;;4.93;0.87;;;;;;;10.43;94.39;98440.88;2105895;28;20476;-63
2021/10/21 04:42:21;;;;;;;0.90;0.43;;;;;;;10.45;93.32;98446.81;2106622;28;20038;-63
2021/10/21 04:43:22;;;;;;;1.03;0.33;;;;;;;10.46;93.88;98440.66;2106557;28;20103;-64
2021/10/21 04:44:22;;;;;;;2.90;0.50;;;;;;;10.45;93.68;98446.81;2106646;28;20506;-62
2021/10/21 04:45:22;;;;;;;2.23;0.73;;;;;;;10.45;93.97;98451.19;2106678;28;20020;-61